createdAt,value
2022-08-05T00:04:58.083Z,2.35
2022-08-05T00:10:00.828Z,2.50
2022-08-05T00:15:54.550Z,2.25
2022-08-05T00:20:29.053Z,1.95
2022-08-05T00:25:45.520Z,2.55
2022-08-05T00:30:52.103Z,2.22
2022-08-05T00:36:16.304Z,2.20
2022-08-05T00:41:29.293Z,2.67
2022-08-05T00:46:54.278Z,2.30
2022-08-05T00:52:05.420Z,2.40
2022-08-05T00:57:08.666Z,2.30
2022-08-05T01:02:12.788Z,2.45
2022-08-05T01:07:19.313Z,2.20
2022-08-05T01:12:23.077Z,2.30
2022-08-05T01:17:32.154Z,2.80
2022-08-05T01:22:57.207Z,2.45
2022-08-05T01:28:15.754Z,2.50
2022-08-05T01:33:21.544Z,2.30
2022-08-05T01:38:30.276Z,2.53
2022-08-05T01:43:35.538Z,2.40
2022-08-05T01:48:41.076Z,2.40
2022-08-05T01:53:57.064Z,2.72
2022-08-05T01:59:07.479Z,2.50
2022-08-05T02:04:11.734Z,3.00
2022-08-05T02:09:16.361Z,2.95
2022-08-05T02:14:27.245Z,2.80
2022-08-05T02:19:35.371Z,2.78
2022-08-05T02:24:41.038Z,2.35
2022-08-05T02:30:00.052Z,2.88
2022-08-05T02:35:13.375Z,3.05
2022-08-05T02:40:18.446Z,2.67
2022-08-05T02:45:24.397Z,2.92
2022-08-05T02:50:30.043Z,2.95
2022-08-05T02:55:54.856Z,3.00
2022-08-05T03:01:00.731Z,3.10
2022-08-05T03:06:56.225Z,2.97
2022-08-05T03:11:57.133Z,3.13
2022-08-05T03:16:53.501Z,3.00
2022-08-05T03:21:56.286Z,3.00
2022-08-05T03:27:01.353Z,2.75
2022-08-05T03:32:07.900Z,2.97
2022-08-05T03:37:11.750Z,2.78
2022-08-05T03:42:17.054Z,3.30
2022-08-05T03:47:21.297Z,2.95
2022-08-05T03:52:48.368Z,3.15
2022-08-05T03:57:54.073Z,3.47
2022-08-05T04:03:02.769Z,3.47
2022-08-05T04:08:22.464Z,3.22
2022-08-05T04:13:50.138Z,3.22
2022-08-05T04:18:57.957Z,3.10
2022-08-05T04:24:06.477Z,3.13
2022-08-05T04:29:11.579Z,3.10
2022-08-05T04:34:31.401Z,3.90
2022-08-05T04:39:35.950Z,3.10
2022-08-05T04:44:39.160Z,3.30
2022-08-05T04:50:03.013Z,3.60
2022-08-05T04:55:14.449Z,3.55
2022-08-05T05:00:18.477Z,3.42
2022-08-05T05:05:28.799Z,4.15
2022-08-05T05:10:33.667Z,3.58
2022-08-05T05:15:56.546Z,3.50
2022-08-05T05:21:00.817Z,3.80
2022-08-05T05:26:03.516Z,3.63
2022-08-05T05:31:08.929Z,3.38
2022-08-05T05:36:13.098Z,3.33
2022-08-05T05:41:17.521Z,3.65
2022-08-05T05:46:21.798Z,3.10
2022-08-05T05:51:28.057Z,3.60
2022-08-05T05:56:34.865Z,3.75
2022-08-05T06:01:40.009Z,3.50
2022-08-05T06:06:46.648Z,3.67
2022-08-05T06:11:59.383Z,3.50
2022-08-05T06:17:21.990Z,4.30
2022-08-05T06:22:28.683Z,3.33
2022-08-05T06:28:10.501Z,3.70
2022-08-05T06:33:09.708Z,4.20
2022-08-05T06:38:13.386Z,3.67
2022-08-05T06:43:57.834Z,3.80
2022-08-05T06:48:55.581Z,3.90
2022-08-05T06:54:04.571Z,3.10
2022-08-05T06:59:11.980Z,3.67
2022-08-05T07:04:14.792Z,3.20
2022-08-05T07:09:24.930Z,2.78
2022-08-05T07:14:46.856Z,2.50
2022-08-05T07:20:31.226Z,2.97
2022-08-05T07:25:54.122Z,2.55
2022-08-05T07:30:40.058Z,3.35
2022-08-05T07:36:01.994Z,3.13
2022-08-05T07:42:08.441Z,3.25
2022-08-05T07:46:32.275Z,3.90
2022-08-05T07:51:40.791Z,3.70
2022-08-05T07:57:13.850Z,4.05
2022-08-05T08:02:26.550Z,4.07
2022-08-05T08:07:39.737Z,3.38
2022-08-05T08:12:58.530Z,3.70
2022-08-05T08:18:05.927Z,3.30
2022-08-05T08:24:01.929Z,3.70
2022-08-05T08:28:49.669Z,3.97
2022-08-05T08:34:13.322Z,3.85
2022-08-05T08:39:32.954Z,3.90
2022-08-05T08:45:19.917Z,3.25
2022-08-05T08:50:30.636Z,3.53
2022-08-05T08:55:31.912Z,3.17
2022-08-05T09:00:53.514Z,2.80
2022-08-05T09:06:07.572Z,3.20
2022-08-05T09:11:16.725Z,3.15
2022-08-05T09:16:50.537Z,3.25
2022-08-05T09:40:56.743Z,3.22
2022-08-05T10:10:59.325Z,3.00
2022-08-05T10:16:03.442Z,2.75
2022-08-05T10:21:11.742Z,2.78
2022-08-05T10:26:24.159Z,2.60
2022-08-05T10:32:54.348Z,2.50
2022-08-05T10:36:50.390Z,2.53
2022-08-05T10:42:01.816Z,2.40
2022-08-05T10:47:26.982Z,3.00
2022-08-05T10:52:49.504Z,2.58
2022-08-05T10:58:11.488Z,2.80
2022-08-05T11:03:23.285Z,2.47
2022-08-05T11:08:38.134Z,2.13
2022-08-05T11:13:57.679Z,2.47
2022-08-05T11:20:10.370Z,3.00
2022-08-05T11:26:04.283Z,2.55
2022-08-05T11:31:56.299Z,2.60
2022-08-05T11:36:53.757Z,3.00
2022-08-05T11:42:04.271Z,2.70
2022-08-05T11:47:14.149Z,2.88
2022-08-05T11:52:29.412Z,2.72
2022-08-05T11:58:08.625Z,2.33
2022-08-05T12:02:57.024Z,2.55
2022-08-05T12:08:03.443Z,2.17
2022-08-05T12:13:16.701Z,2.28
2022-08-05T12:18:32.762Z,2.10
2022-08-05T12:23:36.506Z,2.13
2022-08-05T12:28:46.402Z,2.22
2022-08-05T12:33:50.852Z,1.83
2022-08-05T12:38:55.960Z,1.90
2022-08-05T12:44:01.626Z,2.25
2022-08-05T12:49:13.464Z,1.85
2022-08-05T12:54:23.529Z,2.10
2022-08-05T12:59:46.647Z,1.90
2022-08-05T13:04:55.912Z,2.25
2022-08-05T13:09:59.708Z,1.98
2022-08-05T13:15:07.462Z,2.03
2022-08-05T13:20:16.522Z,1.98
2022-08-05T13:25:52.229Z,2.30
2022-08-05T13:30:45.459Z,1.95
2022-08-05T13:35:52.556Z,2.13
2022-08-05T13:40:55.284Z,1.95
2022-08-05T13:45:58.291Z,2.15
2022-08-05T13:51:08.354Z,2.00
2022-08-05T13:56:18.977Z,1.70
2022-08-05T14:01:36.448Z,2.38
2022-08-05T14:06:47.602Z,1.95
2022-08-05T14:12:04.282Z,2.08
2022-08-05T14:17:16.830Z,1.80
2022-08-05T14:22:22.471Z,1.90
2022-08-05T14:27:25.230Z,1.92
2022-08-05T14:32:31.475Z,1.92
2022-08-05T14:37:45.632Z,1.90
2022-08-05T14:42:51.020Z,1.70
2022-08-05T14:48:04.116Z,2.10
2022-08-05T14:53:10.004Z,1.60
2022-08-05T14:58:13.815Z,2.17
2022-08-05T15:03:16.896Z,1.77
2022-08-05T15:08:57.607Z,1.92
2022-08-05T15:13:49.332Z,2.00
2022-08-05T15:18:53.112Z,2.17
2022-08-05T15:23:57.176Z,1.80
2022-08-05T15:29:02.493Z,1.75
2022-08-05T15:34:31.207Z,1.90
2022-08-05T15:40:58.700Z,1.90
2022-08-05T15:44:54.808Z,1.77
2022-08-05T15:49:59.489Z,2.60
2022-08-05T15:55:04.359Z,2.10
2022-08-05T16:00:08.922Z,1.85
2022-08-05T16:05:11.864Z,1.92
2022-08-05T16:16:49.715Z,2.25
2022-08-05T16:22:02.831Z,1.75
2022-08-05T16:27:47.254Z,1.90
2022-08-05T16:33:41.326Z,2.60
2022-08-05T16:38:58.957Z,2.28
2022-08-05T16:44:29.181Z,1.90
2022-08-05T16:49:54.633Z,2.13
2022-08-05T16:55:04.320Z,2.10
2022-08-05T17:00:10.791Z,2.40
2022-08-05T17:05:20.167Z,2.33
2022-08-05T17:10:26.521Z,2.55
2022-08-05T17:16:28.064Z,2.50
2022-08-05T17:21:41.109Z,2.20
2022-08-05T17:26:56.459Z,2.10
2022-08-05T17:32:00.872Z,2.97
2022-08-05T17:37:39.522Z,2.40
2022-08-05T17:42:51.976Z,1.80
2022-08-05T17:47:58.294Z,1.80
2022-08-05T17:53:35.951Z,1.95
2022-08-05T18:06:11.882Z,2.88
2022-08-05T18:11:24.113Z,2.30
2022-08-05T18:16:51.535Z,2.20
2022-08-05T18:22:09.822Z,2.42
2022-08-05T18:27:18.901Z,2.65
2022-08-05T18:32:21.932Z,2.50
2022-08-05T18:37:34.151Z,2.65
2022-08-05T18:42:44.562Z,2.90
2022-08-05T18:47:56.682Z,3.25
2022-08-05T18:53:00.943Z,3.33
2022-08-05T18:58:18.920Z,3.22
2022-08-05T19:03:53.374Z,3.67
2022-08-05T19:08:58.862Z,3.95
2022-08-05T19:14:37.549Z,4.78
2022-08-05T19:19:29.577Z,4.55
2022-08-05T19:24:35.105Z,5.25
2022-08-05T19:29:44.308Z,4.88
2022-08-05T19:34:54.938Z,4.88
2022-08-05T19:39:59.057Z,5.00
2022-08-05T19:45:03.284Z,5.22
2022-08-05T19:50:12.274Z,4.65
2022-08-05T19:56:13.795Z,5.30
2022-08-05T20:00:40.065Z,5.10
2022-08-05T20:05:51.373Z,3.90
2022-08-05T20:27:57.543Z,3.58
2022-08-05T20:33:00.456Z,2.53
2022-08-05T20:38:08.051Z,2.00
2022-08-05T20:43:12.458Z,1.90
2022-08-05T20:48:16.372Z,1.80
2022-08-05T20:53:36.517Z,1.60
2022-08-05T20:58:43.444Z,1.30
2022-08-05T21:03:48.146Z,1.10
2022-08-05T21:08:51.685Z,1.40
2022-08-05T21:13:57.070Z,1.05
2022-08-05T21:19:00.938Z,1.00
2022-08-05T21:24:06.581Z,0.90
2022-08-05T21:29:12.433Z,0.80
2022-08-05T21:34:20.383Z,1.10
2022-08-05T21:39:27.068Z,1.00
2022-08-05T21:44:32.793Z,0.80
2022-08-05T21:49:59.522Z,1.38
2022-08-05T21:55:06.236Z,1.00
2022-08-05T22:00:12.913Z,1.10
2022-08-05T22:05:15.650Z,1.05
2022-08-05T22:10:26.567Z,0.93
2022-08-05T22:16:00.814Z,1.00
2022-08-05T22:20:54.278Z,1.17
2022-08-05T22:26:15.699Z,1.20
2022-08-05T22:31:19.689Z,1.30
2022-08-05T22:36:23.767Z,0.90
2022-08-05T22:42:10.964Z,1.00
2022-08-05T22:46:51.178Z,1.20
2022-08-05T22:52:04.672Z,1.08
2022-08-05T22:57:09.775Z,1.23
2022-08-05T23:02:28.946Z,1.00
2022-08-05T23:07:32.867Z,1.33
2022-08-05T23:12:47.489Z,1.20
2022-08-05T23:18:01.819Z,1.50
2022-08-05T23:23:05.886Z,1.45
2022-08-05T23:28:11.213Z,1.60
2022-08-05T23:33:25.551Z,1.17
2022-08-05T23:38:38.882Z,1.40
2022-08-05T23:44:04.697Z,1.42
2022-08-05T23:49:16.474Z,1.45
2022-08-05T23:54:25.038Z,1.50
